Startpagina
METAR-TAF:

METAR-TAF

Vliegvelden :

Mc Elroy Airfield

Kremmling, Colorado, Verenigde Staten

breedte: 40-03-13N, lengte: 106-22-08W, hoogte: 2259 m

Actueel weer

Dit bericht is 38 minuten geleden gemaakt, om 23:30 UTC
Weinig wind
Temperatuur 1°C
Vochtigheid 64%
Druk 1017 hPa
Zicht: 16.1 km
Verspreide wolken op 10000 ft

METAR: K20V 212330Z AUTO 00000KT 10SM SCT100 01/M05 A3002 RMK AO2

Tijdstip: 18:08 (00:08 UTC)


TAF: ontbreekt

Waarnemingen en weersverwachtingen van meer dan 4000 vliegvelden (METAR en TAF).

De beschikbare stations zijn de gele en rode punten op de kaart.

Ga met uw muis naar het station om de naam te zien.

Klik dan om waarnemingen en weersverwachtingen te zien.

kaart wijzigen: klik op de groene knoppen met een zwart kruis om in te zoomen, op de groene knop met een streepje om uit te zoomen of op de groene pijlen voor aangrenzende kaarten.


METAR-TAF: